createdAt,value
2019-05-26T00:00:44.746Z,19.42
2019-05-26T00:03:22.243Z,21.68
2019-05-26T00:05:59.908Z,20.65
2019-05-26T00:08:39.382Z,12.68
2019-05-26T00:11:18.061Z,15.68
2019-05-26T00:13:54.927Z,14.83
2019-05-26T00:16:32.638Z,15.90
2019-05-26T00:19:10.018Z,16.35
2019-05-26T00:21:47.816Z,20.88
2019-05-26T00:24:25.045Z,15.78
2019-05-26T00:27:02.858Z,13.85
2019-05-26T00:29:39.975Z,15.65
2019-05-26T00:32:18.465Z,15.88
2019-05-26T00:34:56.262Z,14.43
2019-05-26T00:37:48.577Z,13.28
2019-05-26T00:40:14.319Z,10.45
2019-05-26T00:42:52.349Z,10.93
2019-05-26T00:45:30.295Z,15.88
2019-05-26T00:48:07.677Z,14.95
2019-05-26T00:50:45.259Z,16.25
2019-05-26T00:53:23.701Z,12.60
2019-05-26T00:56:01.719Z,14.35
2019-05-26T00:58:39.360Z,11.83
2019-05-26T01:01:16.887Z,14.50
2019-05-26T01:03:57.426Z,13.03
2019-05-26T01:06:34.833Z,16.17
2019-05-26T01:09:13.281Z,17.55
2019-05-26T01:11:52.464Z,14.58
2019-05-26T01:14:30.715Z,14.25
2019-05-26T01:17:07.965Z,13.55
2019-05-26T01:19:45.317Z,18.65
2019-05-26T01:22:23.497Z,17.27
2019-05-26T01:25:02.378Z,11.10
2019-05-26T01:27:40.019Z,12.95
2019-05-26T01:30:17.239Z,19.23
2019-05-26T01:32:54.411Z,13.75
2019-05-26T01:35:32.593Z,16.50
2019-05-26T01:38:23.076Z,15.00
2019-05-26T01:40:50.138Z,13.65
2019-05-26T01:43:29.116Z,16.37
2019-05-26T01:46:06.950Z,14.85
2019-05-26T01:48:44.173Z,15.15
2019-05-26T01:51:21.648Z,18.17
2019-05-26T01:53:58.829Z,20.15
2019-05-26T01:56:37.995Z,18.62
2019-05-26T01:59:15.085Z,18.40
2019-05-26T02:01:52.854Z,14.73
2019-05-26T02:04:30.077Z,17.65
2019-05-26T02:07:08.188Z,21.87
2019-05-26T02:09:45.383Z,17.07
2019-05-26T02:12:23.671Z,16.37
2019-05-26T02:15:02.408Z,20.25
2019-05-26T02:17:40.592Z,18.48
2019-05-26T02:20:19.565Z,17.50
2019-05-26T02:22:56.817Z,15.55
2019-05-26T02:25:34.142Z,19.50
2019-05-26T02:28:12.033Z,14.68
2019-05-26T02:30:49.400Z,20.88
2019-05-26T02:33:27.311Z,16.97
2019-05-26T02:36:04.761Z,13.00
2019-05-26T02:38:59.788Z,16.55
2019-05-26T02:41:21.613Z,17.73
2019-05-26T02:43:58.789Z,18.40
2019-05-26T02:46:37.334Z,15.23
2019-05-26T02:49:15.395Z,16.32
2019-05-26T02:51:52.600Z,18.50
2019-05-26T02:54:30.170Z,18.17
2019-05-26T02:57:07.667Z,16.30
2019-05-26T02:59:45.510Z,15.40
2019-05-26T03:02:22.738Z,18.30
2019-05-26T03:05:00.507Z,17.55
2019-05-26T03:07:40.514Z,16.50
2019-05-26T03:10:19.435Z,14.63
2019-05-26T03:12:57.528Z,17.77
2019-05-26T03:15:36.571Z,15.43
2019-05-26T03:18:16.015Z,14.23
2019-05-26T03:20:53.463Z,16.45
2019-05-26T03:23:33.621Z,16.80
2019-05-26T03:26:11.045Z,17.20
2019-05-26T03:28:48.005Z,16.32
2019-05-26T03:31:26.324Z,15.40
2019-05-26T03:34:03.901Z,18.62
2019-05-26T03:36:41.324Z,13.38
2019-05-26T03:39:18.477Z,16.45
2019-05-26T03:41:56.624Z,12.63
2019-05-26T03:44:33.732Z,18.25
2019-05-26T03:47:10.958Z,16.48
2019-05-26T03:49:49.691Z,17.00
2019-05-26T03:52:28.442Z,17.70
2019-05-26T03:55:05.653Z,16.90
2019-05-26T03:57:45.529Z,14.50
2019-05-26T04:00:23.018Z,14.30
2019-05-26T04:03:01.359Z,16.52
2019-05-26T04:05:38.578Z,13.15
2019-05-26T04:08:16.429Z,16.12
2019-05-26T04:10:53.843Z,15.13
2019-05-26T04:13:31.912Z,15.30
2019-05-26T04:16:09.268Z,16.30
2019-05-26T04:18:46.741Z,21.82
2019-05-26T04:21:25.490Z,17.82
2019-05-26T04:24:04.089Z,17.95
2019-05-26T04:26:41.454Z,16.12
2019-05-26T04:29:19.296Z,14.23
2019-05-26T04:32:01.697Z,16.62
2019-05-26T04:34:36.690Z,15.20
2019-05-26T04:37:13.537Z,12.82
2019-05-26T04:39:50.536Z,16.62
2019-05-26T04:42:27.722Z,17.00
2019-05-26T04:45:05.001Z,14.07
2019-05-26T04:47:42.404Z,16.82
2019-05-26T04:50:19.608Z,14.28
2019-05-26T04:53:06.169Z,14.43
2019-05-26T04:55:38.798Z,16.67
2019-05-26T04:58:17.932Z,12.45
2019-05-26T05:00:55.431Z,12.43
2019-05-26T05:03:33.857Z,16.62
2019-05-26T05:06:12.016Z,12.40
2019-05-26T05:08:49.170Z,16.17
2019-05-26T05:11:26.744Z,15.28
2019-05-26T05:14:04.237Z,11.12
2019-05-26T05:16:42.320Z,16.17
2019-05-26T05:19:19.624Z,16.45
2019-05-26T05:21:56.948Z,17.55
2019-05-26T05:24:37.114Z,17.27
2019-05-26T05:27:15.711Z,19.90
2019-05-26T05:29:53.080Z,20.12
2019-05-26T05:32:32.974Z,20.95
2019-05-26T05:35:10.778Z,15.28
2019-05-26T05:37:48.661Z,16.37
2019-05-26T05:40:26.092Z,14.00
2019-05-26T05:43:03.312Z,17.37
2019-05-26T05:45:41.045Z,17.23
2019-05-26T05:48:20.463Z,16.95
2019-05-26T05:50:57.963Z,14.33
2019-05-26T05:53:35.880Z,16.35
2019-05-26T05:56:14.482Z,14.35
2019-05-26T05:58:52.967Z,13.90
2019-05-26T06:01:31.106Z,15.32
2019-05-26T06:04:08.440Z,20.50
2019-05-26T06:06:46.029Z,13.48
2019-05-26T06:09:23.561Z,14.15
2019-05-26T06:12:00.623Z,18.70
2019-05-26T06:14:39.099Z,17.75
2019-05-26T06:17:16.264Z,18.60
2019-05-26T06:19:54.733Z,14.30
2019-05-26T06:22:32.005Z,19.85
2019-05-26T06:25:10.036Z,18.55
2019-05-26T06:27:48.524Z,20.40
2019-05-26T06:30:26.599Z,22.20
2019-05-26T06:33:04.453Z,17.80
2019-05-26T06:35:42.524Z,22.90
2019-05-26T06:38:19.811Z,29.77
2019-05-26T06:40:57.863Z,27.25
2019-05-26T06:43:35.302Z,18.25
2019-05-26T06:46:13.107Z,20.02
2019-05-26T06:48:50.576Z,17.50
2019-05-26T06:51:28.623Z,20.72
2019-05-26T06:54:05.779Z,18.95
2019-05-26T06:56:43.909Z,17.70
2019-05-26T06:59:22.942Z,19.57
2019-05-26T07:02:01.225Z,13.00
2019-05-26T07:04:38.868Z,18.52
2019-05-26T07:07:16.491Z,27.87
2019-05-26T07:09:53.833Z,20.82
2019-05-26T07:12:31.816Z,17.23
2019-05-26T07:15:09.232Z,17.82
2019-05-26T07:17:47.137Z,16.87
2019-05-26T07:20:24.185Z,14.38
2019-05-26T07:23:02.544Z,13.15
2019-05-26T07:25:40.053Z,16.65
2019-05-26T07:28:17.710Z,15.15
2019-05-26T07:30:56.839Z,12.45
2019-05-26T07:33:34.733Z,24.98
2019-05-26T07:36:12.371Z,27.17
2019-05-26T07:38:51.308Z,26.42
2019-05-26T07:41:28.867Z,16.30
2019-05-26T07:44:06.952Z,15.65
2019-05-26T07:46:44.686Z,17.05
2019-05-26T07:49:22.528Z,21.60
2019-05-26T07:51:59.849Z,18.40
2019-05-26T07:54:37.798Z,20.32
2019-05-26T07:57:15.495Z,22.62
2019-05-26T07:59:53.060Z,18.25
2019-05-26T08:02:31.033Z,26.62
2019-05-26T08:05:09.792Z,18.82
2019-05-26T08:08:11.472Z,18.62
2019-05-26T08:10:36.122Z,22.73
2019-05-26T08:13:13.671Z,15.83
2019-05-26T08:15:52.070Z,19.77
2019-05-26T08:18:29.562Z,19.35
2019-05-26T08:21:07.763Z,19.35
2019-05-26T08:23:45.648Z,18.17
2019-05-26T08:26:22.849Z,20.75
2019-05-26T08:29:00.204Z,21.02
2019-05-26T08:31:37.969Z,28.90
2019-05-26T08:34:15.297Z,16.97
2019-05-26T08:36:53.279Z,18.87
2019-05-26T08:39:30.319Z,17.90
2019-05-26T08:42:09.415Z,15.30
2019-05-26T08:44:46.947Z,16.93
2019-05-26T08:47:24.267Z,17.75
2019-05-26T08:50:01.773Z,24.30
2019-05-26T08:52:39.481Z,30.08
2019-05-26T08:55:17.808Z,16.80
2019-05-26T08:57:55.692Z,18.85
2019-05-26T09:00:32.660Z,20.85
2019-05-26T09:03:10.439Z,12.82
2019-05-26T09:05:47.637Z,13.78
2019-05-26T09:08:25.302Z,20.27
2019-05-26T09:11:02.926Z,19.30
2019-05-26T09:13:41.768Z,17.95
2019-05-26T09:16:20.548Z,17.60
2019-05-26T09:18:58.275Z,18.67
2019-05-26T09:21:36.290Z,19.35
2019-05-26T09:24:13.831Z,12.85
2019-05-26T09:26:52.763Z,16.17
2019-05-26T09:29:30.129Z,17.17
2019-05-26T09:32:08.095Z,17.52
2019-05-26T09:34:46.037Z,34.03
2019-05-26T09:37:23.687Z,19.37
2019-05-26T09:40:01.476Z,18.65
2019-05-26T09:42:38.716Z,15.78
2019-05-26T09:45:16.396Z,17.55
2019-05-26T09:47:53.935Z,22.17
2019-05-26T09:50:31.719Z,18.82
2019-05-26T09:53:09.251Z,18.55
2019-05-26T09:55:47.650Z,14.68
2019-05-26T09:58:26.347Z,17.37
2019-05-26T10:01:04.110Z,21.25
2019-05-26T10:03:41.913Z,19.98
2019-05-26T10:06:20.013Z,18.60
2019-05-26T10:08:58.048Z,21.82
2019-05-26T10:11:35.991Z,16.00
2019-05-26T10:14:13.901Z,22.20
2019-05-26T10:16:53.623Z,16.82
2019-05-26T10:19:31.081Z,26.52
2019-05-26T10:22:09.092Z,30.65
2019-05-26T10:24:46.632Z,15.35
2019-05-26T10:27:24.150Z,17.48
2019-05-26T10:30:02.686Z,18.25
2019-05-26T10:32:40.906Z,15.05
2019-05-26T10:35:18.846Z,10.68
2019-05-26T10:37:56.504Z,9.33
2019-05-26T10:40:34.057Z,19.77
2019-05-26T10:43:11.316Z,23.22
2019-05-26T10:45:48.717Z,12.82
2019-05-26T10:48:27.345Z,14.73
2019-05-26T10:51:06.892Z,15.72
2019-05-26T10:53:44.336Z,14.60
2019-05-26T10:56:21.822Z,15.50
2019-05-26T10:58:59.863Z,13.98
2019-05-26T11:01:37.940Z,17.48
2019-05-26T11:04:15.201Z,17.05
2019-05-26T11:06:52.587Z,20.23
2019-05-26T11:09:30.259Z,23.32
2019-05-26T11:12:07.313Z,20.20
2019-05-26T11:14:44.974Z,20.55
2019-05-26T11:17:22.324Z,21.82
2019-05-26T11:20:00.780Z,20.82
2019-05-26T11:22:38.998Z,21.85
2019-05-26T11:25:16.559Z,19.45
2019-05-26T11:28:00.234Z,18.57
2019-05-26T11:30:44.318Z,22.75
2019-05-26T11:33:22.688Z,23.62
2019-05-26T11:36:00.528Z,18.27
2019-05-26T11:38:37.553Z,16.73
2019-05-26T11:41:15.879Z,18.12
2019-05-26T11:43:53.053Z,22.55
2019-05-26T11:46:31.060Z,17.15
2019-05-26T11:49:08.595Z,14.93
2019-05-26T11:51:47.036Z,16.82
2019-05-26T11:54:24.661Z,22.10
2019-05-26T11:57:02.265Z,16.27
2019-05-26T11:59:39.762Z,16.30
2019-05-26T12:02:18.141Z,14.35
2019-05-26T12:04:55.776Z,14.87
2019-05-26T12:07:33.027Z,20.20
2019-05-26T12:10:13.819Z,16.55
2019-05-26T12:12:51.604Z,15.45
2019-05-26T12:15:28.905Z,19.15
2019-05-26T12:18:07.071Z,17.65
2019-05-26T12:20:44.318Z,15.50
2019-05-26T12:23:23.713Z,17.27
2019-05-26T12:26:01.161Z,15.40
2019-05-26T12:28:39.221Z,14.93
2019-05-26T12:31:16.171Z,18.25
2019-05-26T12:33:54.442Z,15.63
2019-05-26T12:36:32.983Z,19.30
2019-05-26T12:39:11.283Z,20.72
2019-05-26T12:41:48.788Z,18.48
2019-05-26T12:44:26.754Z,17.12
2019-05-26T12:47:03.885Z,14.03
2019-05-26T12:49:41.854Z,17.07
2019-05-26T12:52:19.509Z,20.85
2019-05-26T12:54:57.773Z,12.33
2019-05-26T12:57:35.124Z,15.35
2019-05-26T13:00:13.657Z,15.10
2019-05-26T13:02:51.255Z,18.30
2019-05-26T13:05:29.763Z,14.20
2019-05-26T13:08:08.347Z,13.80
2019-05-26T13:10:46.118Z,15.68
2019-05-26T13:13:23.869Z,16.95
2019-05-26T13:16:02.479Z,15.30
2019-05-26T13:18:40.150Z,14.65
2019-05-26T13:21:17.494Z,17.10
2019-05-26T13:23:55.644Z,17.45
2019-05-26T13:26:34.439Z,17.80
2019-05-26T13:29:11.863Z,17.27
2019-05-26T13:31:49.127Z,18.37
2019-05-26T13:34:26.476Z,14.05
2019-05-26T13:37:04.211Z,15.48
2019-05-26T13:39:42.412Z,16.12
2019-05-26T13:42:19.996Z,13.55
2019-05-26T13:44:56.994Z,14.10
2019-05-26T13:47:35.095Z,10.70
2019-05-26T13:50:14.082Z,14.53
2019-05-26T13:52:51.189Z,18.10
2019-05-26T13:55:28.900Z,16.02
2019-05-26T13:58:06.969Z,14.63
2019-05-26T14:00:44.046Z,15.63
2019-05-26T14:03:24.185Z,15.13
2019-05-26T14:06:00.930Z,15.72
2019-05-26T14:08:38.843Z,16.55
2019-05-26T14:11:17.300Z,14.40
2019-05-26T14:13:55.109Z,12.75
2019-05-26T14:16:33.042Z,15.05
2019-05-26T14:19:11.633Z,11.50
2019-05-26T14:21:49.179Z,14.38
2019-05-26T14:24:27.176Z,14.60
2019-05-26T14:27:04.512Z,16.23
2019-05-26T14:29:43.134Z,13.30
2019-05-26T14:32:20.302Z,18.02
2019-05-26T14:34:57.869Z,13.43
2019-05-26T14:37:35.256Z,14.70
2019-05-26T14:40:13.764Z,15.28
2019-05-26T14:42:52.098Z,11.05
2019-05-26T14:45:29.635Z,12.50
2019-05-26T14:48:07.045Z,13.95
2019-05-26T14:50:44.984Z,11.03
2019-05-26T14:53:22.189Z,13.98
2019-05-26T14:56:00.437Z,12.98
2019-05-26T14:58:37.585Z,11.57
2019-05-26T15:01:15.381Z,9.88
2019-05-26T15:03:52.952Z,12.07
2019-05-26T15:06:31.160Z,11.75
2019-05-26T15:09:24.211Z,11.80
2019-05-26T15:11:49.557Z,10.72
2019-05-26T15:14:27.933Z,14.28
2019-05-26T15:17:06.127Z,11.18
2019-05-26T15:19:43.260Z,13.88
2019-05-26T15:22:21.105Z,10.95
2019-05-26T15:24:59.279Z,14.38
2019-05-26T15:27:37.138Z,21.12
2019-05-26T15:30:15.130Z,10.88
2019-05-26T15:32:53.144Z,11.22
2019-05-26T15:35:30.243Z,11.25
2019-05-26T15:38:08.275Z,11.40
2019-05-26T15:40:45.620Z,9.80
2019-05-26T15:43:23.254Z,12.03
2019-05-26T15:46:01.010Z,9.75
2019-05-26T15:48:38.311Z,9.80
2019-05-26T15:51:15.074Z,12.88
2019-05-26T15:53:53.607Z,11.85
2019-05-26T15:56:30.986Z,10.98
2019-05-26T15:59:08.713Z,16.20
2019-05-26T16:01:47.819Z,10.43
2019-05-26T16:04:27.610Z,12.13
2019-05-26T16:07:05.366Z,13.80
2019-05-26T16:09:42.752Z,15.15
2019-05-26T16:12:20.904Z,12.85
2019-05-26T16:14:59.786Z,9.98
2019-05-26T16:17:39.046Z,10.72
2019-05-26T16:20:18.169Z,14.23
2019-05-26T16:22:55.610Z,12.80
2019-05-26T16:25:33.526Z,11.40
2019-05-26T16:28:10.669Z,9.50
2019-05-26T16:30:48.051Z,10.93
2019-05-26T16:33:25.342Z,12.50
2019-05-26T16:36:02.746Z,11.18
2019-05-26T16:38:39.817Z,11.93
2019-05-26T16:41:17.725Z,9.95
2019-05-26T16:43:55.210Z,12.45
2019-05-26T16:46:32.970Z,10.82
2019-05-26T16:49:10.892Z,12.43
2019-05-26T16:51:48.511Z,11.15
2019-05-26T16:54:26.022Z,13.13
2019-05-26T16:57:04.009Z,9.85
2019-05-26T16:59:41.819Z,11.75
2019-05-26T17:02:19.238Z,11.80
2019-05-26T17:04:56.681Z,10.48
2019-05-26T17:07:34.545Z,15.08
2019-05-26T17:10:12.206Z,10.25
2019-05-26T17:12:49.486Z,12.37
2019-05-26T17:15:27.338Z,12.25
2019-05-26T17:18:05.254Z,10.48
2019-05-26T17:20:43.185Z,12.65
2019-05-26T17:23:20.886Z,9.88
2019-05-26T17:25:58.110Z,10.95
2019-05-26T17:28:36.452Z,14.20
2019-05-26T17:31:14.908Z,13.68
2019-05-26T17:33:52.317Z,10.93
2019-05-26T17:36:29.398Z,11.73
2019-05-26T17:39:08.365Z,13.53
2019-05-26T17:41:45.485Z,9.03
2019-05-26T17:44:22.781Z,12.53
2019-05-26T17:47:00.090Z,11.90
2019-05-26T17:49:38.605Z,9.45
2019-05-26T17:52:16.646Z,12.88
2019-05-26T17:54:54.287Z,14.95
2019-05-26T17:57:31.519Z,12.75
2019-05-26T18:00:11.442Z,12.25
2019-05-26T18:02:48.556Z,13.85
2019-05-26T18:05:25.826Z,8.13
2019-05-26T18:08:03.358Z,12.33
2019-05-26T18:10:41.386Z,9.98
2019-05-26T18:13:18.783Z,10.78
2019-05-26T18:15:56.950Z,10.48
2019-05-26T18:18:34.071Z,12.75
2019-05-26T18:21:12.056Z,11.60
2019-05-26T18:23:50.186Z,14.55
2019-05-26T18:26:27.979Z,8.33
2019-05-26T18:29:05.264Z,10.45
2019-05-26T18:31:44.422Z,9.95
2019-05-26T18:34:21.506Z,8.63
2019-05-26T18:36:58.979Z,9.50
2019-05-26T18:39:36.800Z,10.32
2019-05-26T18:42:15.671Z,10.50
2019-05-26T18:44:52.936Z,11.48
2019-05-26T18:47:30.184Z,8.43
2019-05-26T18:50:07.799Z,10.78
2019-05-26T18:52:46.003Z,10.60
2019-05-26T18:55:24.144Z,8.80
2019-05-26T18:58:01.729Z,12.33
2019-05-26T19:00:39.764Z,15.70
2019-05-26T19:03:17.644Z,12.75
2019-05-26T19:05:55.322Z,9.68
2019-05-26T19:08:34.005Z,10.90
2019-05-26T19:11:10.925Z,11.30
2019-05-26T19:13:48.799Z,9.03
2019-05-26T19:16:26.844Z,9.40
2019-05-26T19:19:04.085Z,11.83
2019-05-26T19:21:41.611Z,11.88
2019-05-26T19:24:19.170Z,10.50
2019-05-26T19:26:57.097Z,13.10
2019-05-26T19:29:33.990Z,10.88
2019-05-26T19:32:11.187Z,8.95
2019-05-26T19:34:49.324Z,8.03
2019-05-26T19:37:26.534Z,9.95
2019-05-26T19:40:04.094Z,12.25
2019-05-26T19:42:41.624Z,11.88
2019-05-26T19:45:22.383Z,16.02
2019-05-26T19:47:59.981Z,15.15
2019-05-26T19:50:38.042Z,10.90
2019-05-26T19:53:15.868Z,11.40
2019-05-26T19:55:54.037Z,11.68
2019-05-26T19:58:32.689Z,11.25
2019-05-26T20:01:10.130Z,10.95
2019-05-26T20:03:47.867Z,10.50
2019-05-26T20:06:26.244Z,16.85
2019-05-26T20:09:03.837Z,15.20
2019-05-26T20:11:42.348Z,9.35
2019-05-26T20:14:19.918Z,9.15
2019-05-26T20:16:59.284Z,11.80
2019-05-26T20:19:36.687Z,11.28
2019-05-26T20:22:14.528Z,9.73
2019-05-26T20:24:52.762Z,10.08
2019-05-26T20:27:30.698Z,12.40
2019-05-26T20:30:08.903Z,10.30
2019-05-26T20:32:46.465Z,13.55
2019-05-26T20:35:24.179Z,10.93
2019-05-26T20:38:02.661Z,10.43
2019-05-26T20:40:40.271Z,10.63
2019-05-26T20:43:18.049Z,9.50
2019-05-26T20:45:55.232Z,13.30
2019-05-26T20:48:33.187Z,11.03
2019-05-26T20:51:10.629Z,13.72
2019-05-26T20:53:48.566Z,11.80
2019-05-26T20:56:25.839Z,12.00
2019-05-26T20:59:03.718Z,11.50
2019-05-26T21:01:41.896Z,12.13
2019-05-26T21:04:19.645Z,9.55
2019-05-26T21:06:56.987Z,12.45
2019-05-26T21:09:35.990Z,10.88
2019-05-26T21:12:13.496Z,10.15
2019-05-26T21:14:50.667Z,13.08
2019-05-26T21:17:28.867Z,11.55
2019-05-26T21:20:07.629Z,12.82
2019-05-26T21:22:45.211Z,13.62
2019-05-26T21:25:23.021Z,15.53
2019-05-26T21:28:00.173Z,17.90
2019-05-26T21:30:38.978Z,13.43
2019-05-26T21:33:17.433Z,11.15
2019-05-26T21:35:55.030Z,15.53
2019-05-26T21:38:32.979Z,12.07
2019-05-26T21:41:11.583Z,13.95
2019-05-26T21:43:49.288Z,13.72
2019-05-26T21:46:26.838Z,14.20
2019-05-26T21:49:04.068Z,17.10
2019-05-26T21:51:42.346Z,20.17
2019-05-26T21:54:19.530Z,14.55
2019-05-26T21:56:56.952Z,12.53
2019-05-26T21:59:34.519Z,12.58
2019-05-26T22:02:12.544Z,16.60
2019-05-26T22:04:51.277Z,13.45
2019-05-26T22:07:29.289Z,13.80
2019-05-26T22:10:07.074Z,14.38
2019-05-26T22:12:45.177Z,10.95
2019-05-26T22:15:22.560Z,15.28
2019-05-26T22:18:00.757Z,11.00
2019-05-26T22:20:38.408Z,15.85
2019-05-26T22:23:16.547Z,18.60
2019-05-26T22:25:54.411Z,11.75
2019-05-26T22:28:32.019Z,14.13
2019-05-26T22:31:09.344Z,13.13
2019-05-26T22:33:46.922Z,15.38
2019-05-26T22:36:24.907Z,8.35
2019-05-26T22:39:02.217Z,11.18
2019-05-26T22:41:39.983Z,8.78
2019-05-26T22:44:17.949Z,11.12
2019-05-26T22:46:55.754Z,10.68
2019-05-26T22:49:33.656Z,10.58
2019-05-26T22:52:10.763Z,18.80
2019-05-26T22:54:49.437Z,15.35
2019-05-26T22:57:27.035Z,8.45
2019-05-26T23:00:04.131Z,13.80
2019-05-26T23:02:42.397Z,14.23
2019-05-26T23:05:21.394Z,9.00
2019-05-26T23:08:00.002Z,10.95
2019-05-26T23:10:38.234Z,11.00
2019-05-26T23:13:15.536Z,9.60
2019-05-26T23:15:53.429Z,10.53
2019-05-26T23:18:31.390Z,11.43
2019-05-26T23:21:09.111Z,10.50
2019-05-26T23:23:46.270Z,8.15
2019-05-26T23:26:24.586Z,13.48
2019-05-26T23:29:01.881Z,11.80
2019-05-26T23:31:38.842Z,11.60
2019-05-26T23:34:16.385Z,13.68
2019-05-26T23:36:54.650Z,12.50
2019-05-26T23:39:33.080Z,8.43
2019-05-26T23:42:10.917Z,12.20
2019-05-26T23:44:48.698Z,7.62
2019-05-26T23:47:26.848Z,13.43
2019-05-26T23:50:04.174Z,12.00
2019-05-26T23:52:41.710Z,10.10
2019-05-26T23:55:19.939Z,11.28
2019-05-26T23:57:58.162Z,9.90
